KPTN/PTN METAR and TAF weather

Enter ICAO airport designator
Station Type Date Time Source
KPTN METAR 2021/05/12 01:56 UTC NOAA

KPTN 120156Z AUTO 18005KT 10SM OVC014 23/22 A2996 RMK AO2 LTG DSNT N AND NW SLP146 T02280222 $


Station Type Date Time Source
KPTN Decoded METAR 2021/05/12 01:56 UTC NOAA

Patterson Memorial, LA, United States (KPTN) 29-43N 091-20W
May 11, 2021 - 09:56 PM EDT / 2021.05.12 0156 UTC
Wind: from the S (180 degrees) at 6 MPH (5 KT):0
Visibility: 10 mile(s):0
Sky conditions: overcast
Weather: Lightning observed
Temperature: 73.0 F (22.8 C)
Dew Point: 72.0 F (22.2 C)
Relative Humidity: 96%
Pressure (altimeter): 29.96 in. Hg (1014 hPa)
ob: KPTN 120156Z AUTO 18005KT 10SM OVC014 23/22 A2996 RMK AO2 LTG DSNT N AND NW SLP146 T02280222
cycle: 2

Station Type Date Time Source
KPTN TAF UTC NOAA

Error!

Example: see airport list